createdAt,value
2018-12-24T00:00:55.986Z,10.00
2018-12-24T00:03:25.438Z,10.00
2018-12-24T00:06:13.655Z,10.00
2018-12-24T00:09:02.463Z,9.90
2018-12-24T00:11:51.001Z,9.90
2018-12-24T00:14:39.218Z,10.00
2018-12-24T00:17:27.455Z,9.90
2018-12-24T00:25:51.345Z,10.00
2018-12-24T00:28:39.344Z,10.10
2018-12-24T00:31:28.623Z,10.10
2018-12-24T00:33:57.831Z,10.20
2018-12-24T00:37:05.375Z,10.10
2018-12-24T00:39:53.592Z,10.20
2018-12-24T00:42:41.848Z,10.20
2018-12-24T00:45:10.963Z,10.20
2018-12-24T00:47:40.395Z,10.10
2018-12-24T00:50:28.926Z,10.10
2018-12-24T00:53:09.928Z,10.10
2018-12-24T00:55:39.391Z,10.20
2018-12-24T00:58:27.916Z,10.10
2018-12-24T01:06:59.596Z,10.20
2018-12-24T01:09:48.120Z,10.10
2018-12-24T01:12:36.983Z,10.20
2018-12-24T01:15:25.560Z,10.10
2018-12-24T01:17:54.722Z,10.20
2018-12-24T01:20:42.942Z,10.10
2018-12-24T01:23:31.556Z,10.10
2018-12-24T01:26:19.763Z,10.10
2018-12-24T01:29:06.778Z,10.00
2018-12-24T01:31:54.989Z,10.10
2018-12-24T01:34:43.607Z,10.10
2018-12-24T01:37:12.994Z,10.00
2018-12-24T01:40:01.306Z,10.00
2018-12-24T01:42:50.223Z,10.00
2018-12-24T01:45:38.778Z,10.00
2018-12-24T01:48:27.327Z,10.00
2018-12-24T01:51:34.864Z,10.00
2018-12-24T01:54:04.547Z,10.00
2018-12-24T01:56:53.036Z,10.00
2018-12-24T01:59:41.639Z,9.90
2018-12-24T02:02:29.855Z,9.90
2018-12-24T02:05:18.654Z,9.90
2018-12-24T02:08:06.870Z,10.00
2018-12-24T02:10:55.182Z,10.00
2018-12-24T02:13:43.426Z,10.00
2018-12-24T02:16:32.005Z,10.00
2018-12-24T02:19:20.904Z,10.00
2018-12-24T02:22:12.928Z,10.00
2018-12-24T02:24:59.648Z,10.00
2018-12-24T02:27:47.876Z,10.00
2018-12-24T02:30:36.203Z,10.00
2018-12-24T02:33:05.570Z,10.10
2018-12-24T02:35:34.723Z,9.90
2018-12-24T02:38:23.002Z,9.20
2018-12-24T02:41:11.551Z,8.70
2018-12-24T02:44:00.076Z,8.30
2018-12-24T02:46:29.716Z,7.90
2018-12-24T02:49:18.262Z,7.70
2018-12-24T02:51:59.032Z,7.50
2018-12-24T02:54:38.439Z,7.30
2018-12-24T02:57:26.915Z,7.20
2018-12-24T03:00:15.420Z,7.10
2018-12-24T03:02:45.092Z,7.00
2018-12-24T03:05:33.407Z,6.90
2018-12-24T03:08:21.622Z,6.90
2018-12-24T03:11:10.205Z,6.80
2018-12-24T03:13:58.484Z,6.70
2018-12-24T03:16:27.712Z,6.70
2018-12-24T03:19:15.979Z,6.60
2018-12-24T03:21:45.124Z,6.60
2018-12-24T03:28:07.045Z,6.50
2018-12-24T03:30:55.353Z,6.50
2018-12-24T03:33:43.634Z,6.50
2018-12-24T03:36:13.319Z,6.40
2018-12-24T03:39:01.522Z,6.40
2018-12-24T03:41:50.375Z,6.30
2018-12-24T03:44:38.858Z,6.30
2018-12-24T03:47:27.399Z,6.20
2018-12-24T03:50:16.261Z,6.10
2018-12-24T03:52:57.460Z,6.00
2018-12-24T03:55:38.489Z,5.90
2018-12-24T03:58:19.216Z,5.80
2018-12-24T04:00:48.887Z,5.80
2018-12-24T04:03:18.256Z,5.70
2018-12-24T04:06:06.571Z,5.50
2018-12-24T04:08:55.087Z,5.50
2018-12-24T04:11:43.956Z,5.40
2018-12-24T04:14:32.766Z,5.30
2018-12-24T04:17:21.272Z,5.20
2018-12-24T04:20:10.187Z,5.10
2018-12-24T04:23:17.816Z,5.10
2018-12-24T04:25:47.244Z,5.10
2018-12-24T04:28:35.453Z,5.10
2018-12-24T04:31:23.688Z,5.00
2018-12-24T04:34:12.480Z,5.00
2018-12-24T04:37:00.723Z,4.90
2018-12-24T04:39:49.547Z,4.90
2018-12-24T04:42:38.127Z,4.90
2018-12-24T04:45:26.323Z,4.90
2018-12-24T04:48:15.139Z,4.90
2018-12-24T04:51:03.396Z,4.90
2018-12-24T04:53:44.127Z,4.90
2018-12-24T04:56:24.629Z,4.90
2018-12-24T04:59:05.228Z,4.90
2018-12-24T05:01:46.528Z,4.80
2018-12-24T05:04:27.247Z,4.80
2018-12-24T05:06:56.666Z,4.70
2018-12-24T05:09:45.692Z,4.70
2018-12-24T05:12:33.931Z,4.60
2018-12-24T05:15:22.143Z,4.60
2018-12-24T05:17:51.555Z,4.60
2018-12-24T05:20:39.766Z,4.50
2018-12-24T05:23:09.443Z,4.50
2018-12-24T05:28:51.659Z,4.50
2018-12-24T05:31:21.399Z,4.40
2018-12-24T05:34:10.258Z,4.30
2018-12-24T05:36:59.119Z,4.30
2018-12-24T05:39:47.334Z,4.30
2018-12-24T05:42:35.576Z,4.20
2018-12-24T05:45:24.057Z,4.20
2018-12-24T05:48:12.621Z,4.10
2018-12-24T05:51:01.125Z,4.10
2018-12-24T05:53:41.942Z,4.10
2018-12-24T05:56:22.896Z,4.00
2018-12-24T05:59:04.107Z,4.00
2018-12-24T06:01:44.834Z,4.10
2018-12-24T06:04:25.672Z,4.00
2018-12-24T06:07:06.599Z,4.00
2018-12-24T06:09:47.667Z,4.10
2018-12-24T06:12:28.507Z,4.10
2018-12-24T06:18:28.533Z,4.10
2018-12-24T06:20:57.922Z,4.00
2018-12-24T06:23:46.446Z,4.00
2018-12-24T06:26:34.918Z,4.00
2018-12-24T06:29:23.507Z,4.00
2018-12-24T06:32:12.223Z,4.00
2018-12-24T06:35:00.436Z,4.00
2018-12-24T06:37:48.689Z,4.00
2018-12-24T06:40:37.199Z,4.00
2018-12-24T06:43:25.446Z,4.00
2018-12-24T06:46:13.915Z,4.00
2018-12-24T06:48:43.859Z,4.00
2018-12-24T06:51:25.050Z,4.00
2018-12-24T06:54:05.667Z,3.90
2018-12-24T06:56:46.331Z,3.90
2018-12-24T06:59:15.591Z,3.90
2018-12-24T07:01:44.707Z,3.90
2018-12-24T07:04:33.228Z,3.90
2018-12-24T07:07:22.100Z,3.90
2018-12-24T07:09:51.731Z,3.90
2018-12-24T07:12:40.044Z,3.90
2018-12-24T07:15:28.510Z,3.90
2018-12-24T07:22:05.935Z,3.90
2018-12-24T07:31:19.384Z,3.80
2018-12-24T07:34:07.668Z,3.80
2018-12-24T07:40:26.658Z,3.80
2018-12-24T07:43:07.126Z,3.80
2018-12-24T07:45:48.715Z,3.80
2018-12-24T07:48:29.907Z,3.80
2018-12-24T07:50:59.575Z,3.70
2018-12-24T07:53:48.447Z,3.70
2018-12-24T07:56:37.410Z,3.70
2018-12-24T07:59:25.911Z,3.70
2018-12-24T08:02:14.331Z,3.70
2018-12-24T08:05:02.945Z,3.70
2018-12-24T08:10:45.311Z,3.70
2018-12-24T08:13:33.887Z,3.70
2018-12-24T08:16:22.107Z,3.70
2018-12-24T08:19:10.658Z,3.70
2018-12-24T08:21:39.859Z,3.70
2018-12-24T08:24:28.412Z,3.70
2018-12-24T08:27:16.936Z,3.70
2018-12-24T08:30:05.410Z,3.70
2018-12-24T08:32:53.917Z,3.70
2018-12-24T08:35:42.480Z,3.70
2018-12-24T08:38:11.666Z,3.70
2018-12-24T08:41:00.197Z,3.70
2018-12-24T08:43:41.480Z,3.60
2018-12-24T08:46:22.295Z,3.60
2018-12-24T08:48:51.711Z,3.70
2018-12-24T08:51:40.191Z,3.70
2018-12-24T08:54:28.703Z,3.70
2018-12-24T08:57:17.308Z,3.70
2018-12-24T09:00:05.963Z,3.70
2018-12-24T09:02:54.287Z,3.70
2018-12-24T09:05:42.499Z,3.70
2018-12-24T09:08:31.010Z,3.70
2018-12-24T09:11:00.756Z,3.70
2018-12-24T09:13:49.251Z,3.70
2018-12-24T09:16:37.778Z,3.70
2018-12-24T09:19:07.501Z,3.70
2018-12-24T09:21:55.979Z,3.60
2018-12-24T09:24:44.221Z,3.60
2018-12-24T09:27:32.423Z,3.60
2018-12-24T09:30:13.611Z,3.60
2018-12-24T09:32:54.624Z,3.70
2018-12-24T09:35:36.219Z,3.70
2018-12-24T09:38:05.359Z,3.70
2018-12-24T09:40:54.166Z,3.70
2018-12-24T09:43:42.711Z,3.70
2018-12-24T09:46:11.819Z,3.70
2018-12-24T09:49:00.330Z,3.80
2018-12-24T09:52:07.900Z,3.80
2018-12-24T09:54:56.423Z,3.70
2018-12-24T09:57:44.695Z,3.80
2018-12-24T10:00:33.219Z,3.80
2018-12-24T10:03:17.700Z,3.80
2018-12-24T10:09:39.822Z,3.90
2018-12-24T10:12:08.931Z,4.00
2018-12-24T10:14:57.476Z,4.00
2018-12-24T10:17:26.852Z,4.00
2018-12-24T10:20:15.419Z,4.00
2018-12-24T10:23:03.999Z,4.00
2018-12-24T10:25:52.550Z,4.10
2018-12-24T10:28:41.080Z,4.10
2018-12-24T10:31:10.223Z,4.10
2018-12-24T10:36:51.958Z,4.00
2018-12-24T10:39:21.455Z,4.00
2018-12-24T10:42:10.078Z,4.10
2018-12-24T10:44:58.639Z,4.10
2018-12-24T10:47:27.752Z,4.20
2018-12-24T10:50:15.987Z,4.10
2018-12-24T10:56:48.251Z,4.20
2018-12-24T10:59:36.759Z,4.20
2018-12-24T11:02:25.279Z,4.20
2018-12-24T11:05:06.575Z,4.20
2018-12-24T11:07:47.489Z,4.20
2018-12-24T11:10:28.560Z,4.20
2018-12-24T11:12:57.669Z,4.20
2018-12-24T11:15:46.563Z,4.20
2018-12-24T11:18:34.769Z,4.20
2018-12-24T11:21:04.188Z,4.20
2018-12-24T11:23:52.404Z,4.20
2018-12-24T11:26:41.175Z,4.10
2018-12-24T11:32:36.721Z,4.10
2018-12-24T11:35:25.311Z,4.00
2018-12-24T11:38:14.066Z,3.90
2018-12-24T11:41:02.339Z,3.90
2018-12-24T11:43:50.565Z,3.90
2018-12-24T11:46:39.107Z,3.80
2018-12-24T11:49:08.575Z,3.80
2018-12-24T11:51:56.888Z,3.80
2018-12-24T11:54:26.541Z,3.70
2018-12-24T11:57:15.431Z,3.70
2018-12-24T12:00:03.989Z,3.70
2018-12-24T12:02:33.166Z,3.70
2018-12-24T12:05:22.043Z,3.70
2018-12-24T12:08:10.375Z,3.70
2018-12-24T12:10:39.850Z,3.70
2018-12-24T12:13:28.421Z,3.80
2018-12-24T12:16:17.432Z,3.80
2018-12-24T12:19:06.274Z,3.80
2018-12-24T12:21:35.431Z,3.80
2018-12-24T12:24:23.651Z,3.90
2018-12-24T12:27:11.900Z,3.90
2018-12-24T12:30:19.405Z,3.90
2018-12-24T12:35:54.287Z,4.00
2018-12-24T12:38:29.683Z,4.10
2018-12-24T12:41:13.454Z,4.20
2018-12-24T12:44:01.683Z,4.30
2018-12-24T12:46:50.309Z,4.30
2018-12-24T12:49:38.791Z,4.40
2018-12-24T12:52:27.040Z,4.40
2018-12-24T12:54:56.463Z,4.30
2018-12-24T12:57:45.279Z,4.30
2018-12-24T13:04:07.738Z,4.20
2018-12-24T13:06:48.803Z,4.10
2018-12-24T13:12:48.929Z,3.90
2018-12-24T13:15:30.171Z,3.80
2018-12-24T13:18:10.791Z,3.80
2018-12-24T13:20:51.801Z,3.70
2018-12-24T13:23:33.276Z,3.80
2018-12-24T13:26:02.729Z,3.80
2018-12-24T13:34:26.877Z,4.10
2018-12-24T13:37:15.115Z,4.00
2018-12-24T13:40:03.322Z,4.00
2018-12-24T13:42:51.849Z,4.00
2018-12-24T13:45:40.403Z,4.00
2018-12-24T13:48:28.652Z,4.00
2018-12-24T13:51:17.008Z,4.00
2018-12-24T13:53:46.428Z,4.10
2018-12-24T13:56:34.890Z,4.20
2018-12-24T13:59:23.921Z,4.20
2018-12-24T14:04:47.219Z,4.00
2018-12-24T14:07:35.455Z,3.90
2018-12-24T14:10:05.002Z,3.80
2018-12-24T14:12:35.031Z,3.80
2018-12-24T14:15:23.563Z,3.80
2018-12-24T14:18:11.803Z,3.80
2018-12-24T14:21:00.268Z,3.80
2018-12-24T14:26:31.463Z,3.70
2018-12-24T14:29:01.131Z,3.70
2018-12-24T14:31:30.771Z,3.70
2018-12-24T14:34:00.277Z,3.60
2018-12-24T14:36:29.390Z,3.60
2018-12-24T14:38:58.816Z,3.60
2018-12-24T14:45:30.172Z,3.60
2018-12-24T14:48:18.675Z,3.70
2018-12-24T14:50:47.824Z,3.70
2018-12-24T14:53:36.330Z,3.70
2018-12-24T14:56:24.804Z,3.70
2018-12-24T14:59:05.778Z,3.70
2018-12-24T15:01:46.552Z,3.70
2018-12-24T15:07:32.464Z,3.70
2018-12-24T15:10:13.478Z,3.70
2018-12-24T15:12:54.283Z,3.70
2018-12-24T15:15:35.570Z,3.70
2018-12-24T15:18:05.551Z,3.70
2018-12-24T15:20:53.759Z,3.60
2018-12-24T15:23:41.995Z,3.60
2018-12-24T15:26:30.732Z,3.60
2018-12-24T15:29:18.971Z,3.60
2018-12-24T15:31:48.430Z,3.60
2018-12-24T15:34:36.701Z,3.50
2018-12-24T15:37:24.971Z,3.50
2018-12-24T15:39:54.665Z,3.50
2018-12-24T15:42:36.226Z,3.40
2018-12-24T15:45:05.775Z,3.40
2018-12-24T15:47:54.000Z,3.30
2018-12-24T15:50:42.295Z,3.40
2018-12-24T15:53:30.551Z,3.30
2018-12-24T15:56:18.835Z,3.40
2018-12-24T15:59:07.395Z,3.40
2018-12-24T16:01:55.600Z,3.40
2018-12-24T16:04:44.291Z,3.30
2018-12-24T16:10:39.811Z,3.20
2018-12-24T16:13:28.051Z,3.20
2018-12-24T16:16:16.255Z,3.10
2018-12-24T16:19:04.495Z,3.20
2018-12-24T16:21:52.704Z,3.20
2018-12-24T16:24:21.871Z,3.10
2018-12-24T16:27:10.091Z,3.10
2018-12-24T16:29:58.608Z,3.20
2018-12-24T16:35:54.224Z,3.10
2018-12-24T16:38:33.468Z,3.10
2018-12-24T16:41:21.679Z,3.00
2018-12-24T16:44:09.923Z,3.00
2018-12-24T16:46:59.544Z,3.00
2018-12-24T16:49:48.671Z,2.90
2018-12-24T16:52:37.421Z,2.90
2018-12-24T16:56:03.653Z,2.90
2018-12-24T16:58:33.418Z,2.90
2018-12-24T17:01:39.872Z,2.90
2018-12-24T17:07:41.411Z,2.90
2018-12-24T17:10:29.927Z,2.80
2018-12-24T17:16:06.667Z,2.80
2018-12-24T17:18:36.315Z,2.80
2018-12-24T17:21:25.099Z,2.80
2018-12-24T17:24:12.740Z,2.80
2018-12-24T17:27:01.188Z,2.70
2018-12-24T17:32:43.900Z,2.70
2018-12-24T17:35:32.407Z,2.70
2018-12-24T17:38:13.888Z,2.70
2018-12-24T17:40:54.351Z,2.70
2018-12-24T17:43:35.876Z,2.70
2018-12-24T17:46:17.351Z,2.70
2018-12-24T17:48:58.000Z,2.70
2018-12-24T17:51:39.703Z,2.70
2018-12-24T17:54:20.459Z,2.70
2018-12-24T17:57:01.575Z,2.70
2018-12-24T17:59:42.635Z,2.70
2018-12-24T18:02:12.108Z,2.70
2018-12-24T18:05:00.590Z,2.70
2018-12-24T18:07:53.187Z,2.80
2018-12-24T18:10:41.432Z,2.80
2018-12-24T18:13:29.638Z,2.80
2018-12-24T18:16:54.896Z,2.80
2018-12-24T18:19:43.853Z,2.80
2018-12-24T18:22:32.127Z,2.80
2018-12-24T18:25:20.363Z,2.70
2018-12-24T18:27:49.470Z,2.70
2018-12-24T18:30:18.887Z,2.70
2018-12-24T18:36:15.106Z,2.70
2018-12-24T18:44:42.368Z,2.60
2018-12-24T18:47:22.864Z,2.60
2018-12-24T18:50:02.466Z,2.60
2018-12-24T18:52:50.683Z,2.50
2018-12-24T18:55:39.205Z,2.60
2018-12-24T18:58:27.412Z,2.60
2018-12-24T19:01:15.671Z,2.50
2018-12-24T19:04:04.139Z,2.50
2018-12-24T19:06:52.391Z,2.50
2018-12-24T19:09:40.984Z,2.40
2018-12-24T19:12:29.492Z,2.40
2018-12-24T19:15:17.744Z,2.40
2018-12-24T19:18:06.223Z,2.40
2018-12-24T19:20:54.747Z,2.40
2018-12-24T19:23:43.303Z,2.30
2018-12-24T19:26:32.267Z,2.30
2018-12-24T19:29:21.079Z,2.30
2018-12-24T19:32:09.879Z,2.20
2018-12-24T19:34:58.355Z,2.20
2018-12-24T19:37:46.898Z,2.20
2018-12-24T19:40:43.375Z,2.10
2018-12-24T19:43:31.871Z,2.10
2018-12-24T19:46:20.122Z,2.10
2018-12-24T19:49:08.603Z,2.10
2018-12-24T19:51:56.850Z,2.10
2018-12-24T19:54:45.423Z,2.00
2018-12-24T19:57:33.931Z,2.00
2018-12-24T20:00:22.430Z,2.00
2018-12-24T20:03:11.198Z,2.00
2018-12-24T20:05:40.926Z,2.00
2018-12-24T20:08:46.882Z,2.00
2018-12-24T20:11:35.399Z,2.00
2018-12-24T20:14:24.451Z,2.00
2018-12-24T20:17:12.703Z,2.00
2018-12-24T20:19:42.879Z,2.00
2018-12-24T20:22:31.159Z,2.00
2018-12-24T20:25:19.387Z,2.00
2018-12-24T20:31:02.254Z,2.00
2018-12-24T20:33:50.863Z,1.90
2018-12-24T20:36:39.431Z,1.90
2018-12-24T20:42:03.288Z,1.80
2018-12-24T20:44:44.464Z,1.80
2018-12-24T20:47:13.612Z,1.70
2018-12-24T20:50:02.371Z,1.70
2018-12-24T20:52:31.774Z,1.70
2018-12-24T20:55:20.791Z,1.60
2018-12-24T20:57:50.557Z,1.60
2018-12-24T21:00:20.009Z,1.50
2018-12-24T21:03:08.515Z,1.50
2018-12-24T21:05:57.012Z,1.40
2018-12-24T21:08:45.354Z,1.40
2018-12-24T21:11:33.574Z,1.30
2018-12-24T21:14:02.955Z,1.30
2018-12-24T21:16:51.199Z,1.20
2018-12-24T21:19:39.681Z,1.20
2018-12-24T21:22:27.920Z,1.10
2018-12-24T21:24:57.323Z,1.10
2018-12-24T21:27:45.563Z,1.10
2018-12-24T21:30:34.099Z,1.10
2018-12-24T21:33:22.648Z,1.00
2018-12-24T21:35:52.034Z,1.00
2018-12-24T21:38:32.739Z,1.00
2018-12-24T21:41:02.157Z,0.90
2018-12-24T21:43:50.983Z,0.90
2018-12-24T21:46:39.327Z,0.90
2018-12-24T21:52:35.743Z,0.80
2018-12-24T21:55:23.948Z,0.80
2018-12-24T21:58:12.456Z,0.80
2018-12-24T22:07:53.177Z,0.70
2018-12-24T22:10:22.923Z,0.70
2018-12-24T22:13:11.436Z,0.70
2018-12-24T22:20:19.012Z,0.60
2018-12-24T22:26:20.579Z,0.50
2018-12-24T22:29:09.083Z,0.50
2018-12-24T22:34:44.275Z,0.50
2018-12-24T22:40:19.859Z,0.60
2018-12-24T22:43:08.887Z,0.60
2018-12-24T22:45:57.103Z,0.60
2018-12-24T22:48:45.423Z,0.60
2018-12-24T22:51:14.806Z,0.50
2018-12-24T22:54:03.349Z,0.40
2018-12-24T22:56:32.723Z,0.40
2018-12-24T22:59:21.503Z,0.30
2018-12-24T23:05:40.555Z,0.20
2018-12-24T23:08:28.799Z,0.10
2018-12-24T23:11:53.666Z,0.10
2018-12-24T23:14:42.231Z,0.00
2018-12-24T23:17:30.747Z,0.00
2018-12-24T23:20:18.968Z,0.00
2018-12-24T23:23:26.767Z,-0.10
2018-12-24T23:25:56.232Z,-0.10
2018-12-24T23:28:44.480Z,-0.10
2018-12-24T23:35:16.504Z,-0.10
2018-12-24T23:37:57.531Z,-0.10
2018-12-24T23:40:26.643Z,-0.20
2018-12-24T23:43:15.160Z,-0.20
2018-12-24T23:46:03.375Z,-0.20
2018-12-24T23:48:57.681Z,-0.30
2018-12-24T23:51:22.744Z,-0.30
2018-12-24T23:54:11.556Z,-0.30
2018-12-24T23:56:59.763Z,-0.30
2018-12-24T23:59:48.047Z,-0.30
